sensor_id;sensor_type;location;lat;lon;timestamp;P1;durP1;ratioP1;P2;durP2;ratioP2
13244;SDS011;6689;53.400;12.486;2023-07-29T00:01:57;2.10;;;1.88;;
13244;SDS011;6689;53.400;12.486;2023-07-29T00:04:25;3.00;;;1.98;;
13244;SDS011;6689;53.400;12.486;2023-07-29T00:06:52;3.55;;;2.05;;
13244;SDS011;6689;53.400;12.486;2023-07-29T00:09:20;2.92;;;2.17;;
13244;SDS011;6689;53.400;12.486;2023-07-29T00:11:49;2.33;;;2.10;;
13244;SDS011;6689;53.400;12.486;2023-07-29T00:14:18;3.78;;;2.58;;
13244;SDS011;6689;53.400;12.486;2023-07-29T00:16:46;3.58;;;3.15;;
13244;SDS011;6689;53.400;12.486;2023-07-29T00:19:15;4.82;;;3.50;;
13244;SDS011;6689;53.400;12.486;2023-07-29T00:21:42;4.10;;;3.60;;
13244;SDS011;6689;53.400;12.486;2023-07-29T00:24:11;4.22;;;3.30;;
13244;SDS011;6689;53.400;12.486;2023-07-29T00:26:38;4.63;;;3.83;;
13244;SDS011;6689;53.400;12.486;2023-07-29T00:29:06;4.90;;;4.10;;
13244;SDS011;6689;53.400;12.486;2023-07-29T00:31:35;8.73;;;4.10;;
13244;SDS011;6689;53.400;12.486;2023-07-29T00:34:02;4.07;;;3.67;;
13244;SDS011;6689;53.400;12.486;2023-07-29T00:36:30;1.92;;;1.73;;
13244;SDS011;6689;53.400;12.486;2023-07-29T00:38:58;5.88;;;3.10;;
13244;SDS011;6689;53.400;12.486;2023-07-29T00:41:26;3.78;;;3.33;;
13244;SDS011;6689;53.400;12.486;2023-07-29T00:43:56;5.53;;;3.10;;
13244;SDS011;6689;53.400;12.486;2023-07-29T00:46:23;4.28;;;3.30;;
13244;SDS011;6689;53.400;12.486;2023-07-29T00:48:52;3.80;;;3.40;;
13244;SDS011;6689;53.400;12.486;2023-07-29T00:51:20;4.03;;;3.63;;
13244;SDS011;6689;53.400;12.486;2023-07-29T00:53:48;4.55;;;3.38;;
13244;SDS011;6689;53.400;12.486;2023-07-29T00:56:16;5.75;;;3.58;;
13244;SDS011;6689;53.400;12.486;2023-07-29T00:58:44;3.55;;;3.25;;
13244;SDS011;6689;53.400;12.486;2023-07-29T01:01:14;4.03;;;3.05;;
13244;SDS011;6689;53.400;12.486;2023-07-29T01:03:42;4.95;;;3.65;;
13244;SDS011;6689;53.400;12.486;2023-07-29T01:06:13;5.20;;;4.10;;
13244;SDS011;6689;53.400;12.486;2023-07-29T01:08:50;6.78;;;4.18;;
13244;SDS011;6689;53.400;12.486;2023-07-29T01:11:27;5.18;;;3.80;;
13244;SDS011;6689;53.400;12.486;2023-07-29T01:14:14;4.70;;;3.05;;
13244;SDS011;6689;53.400;12.486;2023-07-29T01:16:50;6.15;;;3.25;;
13244;SDS011;6689;53.400;12.486;2023-07-29T01:19:26;4.18;;;3.78;;
13244;SDS011;6689;53.400;12.486;2023-07-29T01:22:10;4.88;;;3.38;;
13244;SDS011;6689;53.400;12.486;2023-07-29T01:24:40;4.13;;;3.72;;
13244;SDS011;6689;53.400;12.486;2023-07-29T01:27:07;4.55;;;3.95;;
13244;SDS011;6689;53.400;12.486;2023-07-29T01:29:35;4.47;;;4.07;;
13244;SDS011;6689;53.400;12.486;2023-07-29T01:32:04;5.10;;;3.20;;
13244;SDS011;6689;53.400;12.486;2023-07-29T01:34:39;5.97;;;2.92;;
13244;SDS011;6689;53.400;12.486;2023-07-29T01:37:12;7.13;;;3.58;;
13244;SDS011;6689;53.400;12.486;2023-07-29T01:39:47;3.72;;;3.42;;
13244;SDS011;6689;53.400;12.486;2023-07-29T01:42:17;4.90;;;4.00;;
13244;SDS011;6689;53.400;12.486;2023-07-29T01:44:45;5.07;;;3.72;;
13244;SDS011;6689;53.400;12.486;2023-07-29T01:47:13;4.70;;;3.53;;
13244;SDS011;6689;53.400;12.486;2023-07-29T01:49:40;4.07;;;3.58;;
13244;SDS011;6689;53.400;12.486;2023-07-29T01:52:08;4.50;;;3.55;;
13244;SDS011;6689;53.400;12.486;2023-07-29T01:54:36;9.38;;;3.78;;
13244;SDS011;6689;53.400;12.486;2023-07-29T01:57:06;5.95;;;3.65;;
13244;SDS011;6689;53.400;12.486;2023-07-29T01:59:33;4.57;;;3.75;;
13244;SDS011;6689;53.400;12.486;2023-07-29T02:02:04;5.95;;;4.05;;
13244;SDS011;6689;53.400;12.486;2023-07-29T02:04:31;6.43;;;4.75;;
13244;SDS011;6689;53.400;12.486;2023-07-29T02:06:59;9.43;;;4.15;;
13244;SDS011;6689;53.400;12.486;2023-07-29T02:09:26;12.20;;;4.72;;
13244;SDS011;6689;53.400;12.486;2023-07-29T02:11:54;4.72;;;3.85;;
13244;SDS011;6689;53.400;12.486;2023-07-29T02:14:25;6.15;;;5.55;;
13244;SDS011;6689;53.400;12.486;2023-07-29T02:16:53;9.27;;;5.30;;
13244;SDS011;6689;53.400;12.486;2023-07-29T02:19:20;5.85;;;5.25;;
13244;SDS011;6689;53.400;12.486;2023-07-29T02:21:48;6.38;;;5.65;;
13244;SDS011;6689;53.400;12.486;2023-07-29T02:24:15;6.00;;;5.10;;
13244;SDS011;6689;53.400;12.486;2023-07-29T02:26:42;7.15;;;5.78;;
13244;SDS011;6689;53.400;12.486;2023-07-29T02:29:10;7.00;;;6.38;;
13244;SDS011;6689;53.400;12.486;2023-07-29T02:31:38;7.28;;;6.57;;
13244;SDS011;6689;53.400;12.486;2023-07-29T02:34:06;8.40;;;6.10;;
13244;SDS011;6689;53.400;12.486;2023-07-29T02:36:34;7.00;;;6.30;;
13244;SDS011;6689;53.400;12.486;2023-07-29T02:39:01;8.25;;;6.05;;
13244;SDS011;6689;53.400;12.486;2023-07-29T02:41:29;10.98;;;6.53;;
13244;SDS011;6689;53.400;12.486;2023-07-29T02:43:56;8.00;;;6.05;;
13244;SDS011;6689;53.400;12.486;2023-07-29T02:46:26;8.05;;;7.18;;
13244;SDS011;6689;53.400;12.486;2023-07-29T02:48:55;8.75;;;6.63;;
13244;SDS011;6689;53.400;12.486;2023-07-29T02:51:22;6.88;;;6.13;;
13244;SDS011;6689;53.400;12.486;2023-07-29T02:53:56;7.43;;;6.50;;
13244;SDS011;6689;53.400;12.486;2023-07-29T02:56:24;9.20;;;6.63;;
13244;SDS011;6689;53.400;12.486;2023-07-29T02:58:51;8.60;;;6.65;;
13244;SDS011;6689;53.400;12.486;2023-07-29T03:01:20;10.38;;;7.18;;
13244;SDS011;6689;53.400;12.486;2023-07-29T03:03:50;7.97;;;7.18;;
13244;SDS011;6689;53.400;12.486;2023-07-29T03:06:19;7.40;;;6.70;;
13244;SDS011;6689;53.400;12.486;2023-07-29T03:08:46;11.30;;;7.38;;
13244;SDS011;6689;53.400;12.486;2023-07-29T03:11:14;8.98;;;6.90;;
13244;SDS011;6689;53.400;12.486;2023-07-29T03:13:42;10.02;;;6.53;;
13244;SDS011;6689;53.400;12.486;2023-07-29T03:16:12;11.05;;;7.10;;
13244;SDS011;6689;53.400;12.486;2023-07-29T03:18:40;10.27;;;7.22;;
13244;SDS011;6689;53.400;12.486;2023-07-29T03:21:10;8.48;;;6.65;;
13244;SDS011;6689;53.400;12.486;2023-07-29T03:23:39;7.45;;;6.75;;
13244;SDS011;6689;53.400;12.486;2023-07-29T03:26:06;7.70;;;6.85;;
13244;SDS011;6689;53.400;12.486;2023-07-29T03:28:36;7.68;;;6.20;;
13244;SDS011;6689;53.400;12.486;2023-07-29T03:31:04;6.50;;;5.90;;
13244;SDS011;6689;53.400;12.486;2023-07-29T03:33:32;6.72;;;6.00;;
13244;SDS011;6689;53.400;12.486;2023-07-29T03:36:02;6.78;;;5.75;;
13244;SDS011;6689;53.400;12.486;2023-07-29T03:38:29;6.93;;;5.38;;
13244;SDS011;6689;53.400;12.486;2023-07-29T03:40:59;6.95;;;6.25;;
13244;SDS011;6689;53.400;12.486;2023-07-29T03:43:28;9.55;;;6.20;;
13244;SDS011;6689;53.400;12.486;2023-07-29T03:45:55;6.90;;;6.20;;
13244;SDS011;6689;53.400;12.486;2023-07-29T03:48:22;6.07;;;5.22;;
13244;SDS011;6689;53.400;12.486;2023-07-29T03:50:49;7.05;;;5.05;;
13244;SDS011;6689;53.400;12.486;2023-07-29T03:53:17;5.78;;;5.07;;
13244;SDS011;6689;53.400;12.486;2023-07-29T03:55:44;7.32;;;5.30;;
13244;SDS011;6689;53.400;12.486;2023-07-29T03:58:13;9.15;;;5.43;;
13244;SDS011;6689;53.400;12.486;2023-07-29T04:00:42;6.75;;;5.18;;
13244;SDS011;6689;53.400;12.486;2023-07-29T04:03:09;6.10;;;5.47;;
13244;SDS011;6689;53.400;12.486;2023-07-29T04:05:37;6.20;;;5.28;;
13244;SDS011;6689;53.400;12.486;2023-07-29T04:08:04;7.53;;;5.10;;
13244;SDS011;6689;53.400;12.486;2023-07-29T04:10:31;6.72;;;4.63;;
13244;SDS011;6689;53.400;12.486;2023-07-29T04:13:02;7.03;;;4.70;;
13244;SDS011;6689;53.400;12.486;2023-07-29T04:15:32;7.93;;;5.03;;
13244;SDS011;6689;53.400;12.486;2023-07-29T04:17:59;4.90;;;4.05;;
13244;SDS011;6689;53.400;12.486;2023-07-29T04:20:27;8.50;;;4.43;;
13244;SDS011;6689;53.400;12.486;2023-07-29T04:22:54;4.70;;;4.20;;
13244;SDS011;6689;53.400;12.486;2023-07-29T04:25:21;7.07;;;4.13;;
13244;SDS011;6689;53.400;12.486;2023-07-29T04:27:49;6.38;;;4.60;;
13244;SDS011;6689;53.400;12.486;2023-07-29T04:30:16;5.75;;;3.90;;
13244;SDS011;6689;53.400;12.486;2023-07-29T04:32:45;4.13;;;3.47;;
13244;SDS011;6689;53.400;12.486;2023-07-29T04:35:13;4.13;;;3.70;;
13244;SDS011;6689;53.400;12.486;2023-07-29T04:37:41;4.80;;;3.55;;
13244;SDS011;6689;53.400;12.486;2023-07-29T04:40:08;7.15;;;3.88;;
13244;SDS011;6689;53.400;12.486;2023-07-29T04:42:37;3.92;;;3.47;;
13244;SDS011;6689;53.400;12.486;2023-07-29T04:45:05;4.05;;;3.65;;
13244;SDS011;6689;53.400;12.486;2023-07-29T04:47:32;4.30;;;2.97;;
13244;SDS011;6689;53.400;12.486;2023-07-29T04:50:01;3.35;;;3.05;;
13244;SDS011;6689;53.400;12.486;2023-07-29T04:52:29;4.20;;;2.95;;
13244;SDS011;6689;53.400;12.486;2023-07-29T04:54:56;3.45;;;3.00;;
13244;SDS011;6689;53.400;12.486;2023-07-29T04:57:26;4.00;;;3.03;;
13244;SDS011;6689;53.400;12.486;2023-07-29T04:59:54;3.25;;;2.88;;
13244;SDS011;6689;53.400;12.486;2023-07-29T05:02:21;4.47;;;2.55;;
13244;SDS011;6689;53.400;12.486;2023-07-29T05:04:49;5.68;;;3.20;;
13244;SDS011;6689;53.400;12.486;2023-07-29T05:07:18;8.93;;;3.20;;
13244;SDS011;6689;53.400;12.486;2023-07-29T05:09:46;6.00;;;3.15;;
13244;SDS011;6689;53.400;12.486;2023-07-29T05:12:14;5.47;;;2.90;;
13244;SDS011;6689;53.400;12.486;2023-07-29T05:14:41;4.43;;;2.83;;
13244;SDS011;6689;53.400;12.486;2023-07-29T05:17:11;4.85;;;3.08;;
13244;SDS011;6689;53.400;12.486;2023-07-29T05:19:38;4.05;;;3.05;;
13244;SDS011;6689;53.400;12.486;2023-07-29T05:22:05;4.72;;;3.38;;
13244;SDS011;6689;53.400;12.486;2023-07-29T05:24:34;5.93;;;3.03;;
13244;SDS011;6689;53.400;12.486;2023-07-29T05:27:03;3.40;;;3.10;;
13244;SDS011;6689;53.400;12.486;2023-07-29T05:29:31;3.83;;;2.85;;
13244;SDS011;6689;53.400;12.486;2023-07-29T05:31:58;6.63;;;3.20;;
13244;SDS011;6689;53.400;12.486;2023-07-29T05:34:26;6.88;;;3.08;;
13244;SDS011;6689;53.400;12.486;2023-07-29T05:36:53;4.03;;;2.92;;
13244;SDS011;6689;53.400;12.486;2023-07-29T05:39:20;4.18;;;3.03;;
13244;SDS011;6689;53.400;12.486;2023-07-29T05:41:50;3.17;;;2.88;;
13244;SDS011;6689;53.400;12.486;2023-07-29T05:44:17;3.50;;;2.70;;
13244;SDS011;6689;53.400;12.486;2023-07-29T05:46:45;3.10;;;2.80;;
13244;SDS011;6689;53.400;12.486;2023-07-29T05:49:12;5.25;;;3.33;;
13244;SDS011;6689;53.400;12.486;2023-07-29T05:51:40;4.97;;;3.28;;
13244;SDS011;6689;53.400;12.486;2023-07-29T05:54:07;4.18;;;3.33;;
13244;SDS011;6689;53.400;12.486;2023-07-29T05:56:34;3.55;;;3.08;;
13244;SDS011;6689;53.400;12.486;2023-07-29T05:59:03;3.95;;;3.10;;
13244;SDS011;6689;53.400;12.486;2023-07-29T06:01:31;3.80;;;2.95;;
13244;SDS011;6689;53.400;12.486;2023-07-29T06:04:01;3.55;;;3.25;;
13244;SDS011;6689;53.400;12.486;2023-07-29T06:06:28;3.90;;;3.50;;
13244;SDS011;6689;53.400;12.486;2023-07-29T06:08:56;6.03;;;3.50;;
13244;SDS011;6689;53.400;12.486;2023-07-29T06:11:23;4.82;;;3.85;;
13244;SDS011;6689;53.400;12.486;2023-07-29T06:13:50;4.00;;;3.60;;
13244;SDS011;6689;53.400;12.486;2023-07-29T06:16:22;4.88;;;3.35;;
13244;SDS011;6689;53.400;12.486;2023-07-29T06:18:49;5.38;;;3.72;;
13244;SDS011;6689;53.400;12.486;2023-07-29T06:21:18;4.18;;;3.78;;
13244;SDS011;6689;53.400;12.486;2023-07-29T06:23:46;4.20;;;3.38;;
13244;SDS011;6689;53.400;12.486;2023-07-29T06:26:14;6.95;;;3.67;;
13244;SDS011;6689;53.400;12.486;2023-07-29T06:28:41;5.53;;;3.67;;
13244;SDS011;6689;53.400;12.486;2023-07-29T06:31:08;5.20;;;4.40;;
13244;SDS011;6689;53.400;12.486;2023-07-29T06:33:37;4.63;;;3.90;;
13244;SDS011;6689;53.400;12.486;2023-07-29T06:36:04;4.38;;;3.97;;
13244;SDS011;6689;53.400;12.486;2023-07-29T06:38:32;4.03;;;3.63;;
13244;SDS011;6689;53.400;12.486;2023-07-29T06:40:59;4.28;;;3.88;;
13244;SDS011;6689;53.400;12.486;2023-07-29T06:43:26;5.63;;;3.75;;
13244;SDS011;6689;53.400;12.486;2023-07-29T06:45:54;4.65;;;3.92;;
13244;SDS011;6689;53.400;12.486;2023-07-29T06:48:21;4.78;;;4.18;;
13244;SDS011;6689;53.400;12.486;2023-07-29T06:50:50;4.57;;;3.92;;
13244;SDS011;6689;53.400;12.486;2023-07-29T06:53:17;4.40;;;4.00;;
13244;SDS011;6689;53.400;12.486;2023-07-29T06:55:44;4.40;;;4.00;;
13244;SDS011;6689;53.400;12.486;2023-07-29T06:58:11;5.93;;;4.10;;
13244;SDS011;6689;53.400;12.486;2023-07-29T07:00:39;4.28;;;3.88;;
13244;SDS011;6689;53.400;12.486;2023-07-29T07:03:09;7.85;;;5.35;;
13244;SDS011;6689;53.400;12.486;2023-07-29T07:05:37;5.75;;;5.05;;
13244;SDS011;6689;53.400;12.486;2023-07-29T07:08:05;5.97;;;5.38;;
13244;SDS011;6689;53.400;12.486;2023-07-29T07:10:34;8.00;;;6.55;;
13244;SDS011;6689;53.400;12.486;2023-07-29T07:13:02;7.65;;;5.85;;
13244;SDS011;6689;53.400;12.486;2023-07-29T07:15:32;9.25;;;5.63;;
13244;SDS011;6689;53.400;12.486;2023-07-29T07:17:59;6.68;;;6.07;;
13244;SDS011;6689;53.400;12.486;2023-07-29T07:20:26;10.13;;;6.75;;
13244;SDS011;6689;53.400;12.486;2023-07-29T07:22:55;7.25;;;6.57;;
13244;SDS011;6689;53.400;12.486;2023-07-29T07:25:24;7.38;;;6.68;;
13244;SDS011;6689;53.400;12.486;2023-07-29T07:27:51;9.27;;;7.18;;
13244;SDS011;6689;53.400;12.486;2023-07-29T07:30:19;10.20;;;9.05;;
13244;SDS011;6689;53.400;12.486;2023-07-29T07:32:47;10.05;;;9.15;;
13244;SDS011;6689;53.400;12.486;2023-07-29T07:35:15;8.80;;;8.00;;
13244;SDS011;6689;53.400;12.486;2023-07-29T07:37:44;10.90;;;9.80;;
13244;SDS011;6689;53.400;12.486;2023-07-29T07:40:11;13.30;;;7.95;;
13244;SDS011;6689;53.400;12.486;2023-07-29T07:42:40;7.57;;;6.88;;
13244;SDS011;6689;53.400;12.486;2023-07-29T07:45:07;8.15;;;7.43;;
13244;SDS011;6689;53.400;12.486;2023-07-29T07:47:37;11.73;;;8.07;;
13244;SDS011;6689;53.400;12.486;2023-07-29T07:50:05;9.30;;;7.65;;
13244;SDS011;6689;53.400;12.486;2023-07-29T07:52:32;15.10;;;7.80;;
13244;SDS011;6689;53.400;12.486;2023-07-29T07:55:00;7.88;;;7.15;;
13244;SDS011;6689;53.400;12.486;2023-07-29T07:57:28;7.68;;;6.97;;
13244;SDS011;6689;53.400;12.486;2023-07-29T07:59:58;8.95;;;7.88;;
13244;SDS011;6689;53.400;12.486;2023-07-29T08:02:26;8.65;;;7.65;;
13244;SDS011;6689;53.400;12.486;2023-07-29T08:04:54;8.00;;;7.22;;
13244;SDS011;6689;53.400;12.486;2023-07-29T08:07:21;11.45;;;7.55;;
13244;SDS011;6689;53.400;12.486;2023-07-29T08:09:48;10.23;;;8.05;;
13244;SDS011;6689;53.400;12.486;2023-07-29T08:12:16;10.13;;;9.02;;
13244;SDS011;6689;53.400;12.486;2023-07-29T08:14:43;9.93;;;8.98;;
13244;SDS011;6689;53.400;12.486;2023-07-29T08:17:13;9.55;;;8.65;;
13244;SDS011;6689;53.400;12.486;2023-07-29T08:19:40;9.40;;;8.50;;
13244;SDS011;6689;53.400;12.486;2023-07-29T08:22:08;9.65;;;8.65;;
13244;SDS011;6689;53.400;12.486;2023-07-29T08:24:35;9.25;;;8.02;;
13244;SDS011;6689;53.400;12.486;2023-07-29T08:27:03;8.98;;;8.07;;
13244;SDS011;6689;53.400;12.486;2023-07-29T08:29:30;7.85;;;7.15;;
13244;SDS011;6689;53.400;12.486;2023-07-29T08:31:58;8.30;;;7.50;;
13244;SDS011;6689;53.400;12.486;2023-07-29T08:34:26;9.15;;;7.85;;
13244;SDS011;6689;53.400;12.486;2023-07-29T08:36:54;9.18;;;7.40;;
13244;SDS011;6689;53.400;12.486;2023-07-29T08:39:21;7.53;;;6.72;;
13244;SDS011;6689;53.400;12.486;2023-07-29T08:41:49;7.50;;;6.78;;
13244;SDS011;6689;53.400;12.486;2023-07-29T08:44:22;6.78;;;6.07;;
13244;SDS011;6689;53.400;12.486;2023-07-29T08:46:50;8.13;;;7.32;;
13244;SDS011;6689;53.400;12.486;2023-07-29T08:49:19;7.95;;;6.25;;
13244;SDS011;6689;53.400;12.486;2023-07-29T08:51:51;8.35;;;7.55;;
13244;SDS011;6689;53.400;12.486;2023-07-29T08:54:20;7.05;;;6.32;;
13244;SDS011;6689;53.400;12.486;2023-07-29T08:56:48;8.63;;;7.30;;
13244;SDS011;6689;53.400;12.486;2023-07-29T08:59:16;9.30;;;8.18;;
13244;SDS011;6689;53.400;12.486;2023-07-29T09:01:44;8.52;;;7.65;;
13244;SDS011;6689;53.400;12.486;2023-07-29T09:04:13;9.07;;;8.05;;
13244;SDS011;6689;53.400;12.486;2023-07-29T09:06:40;9.55;;;8.75;;
13244;SDS011;6689;53.400;12.486;2023-07-29T09:09:12;9.93;;;8.98;;
13244;SDS011;6689;53.400;12.486;2023-07-29T09:11:40;9.32;;;8.43;;
13244;SDS011;6689;53.400;12.486;2023-07-29T09:14:07;10.80;;;9.20;;
13244;SDS011;6689;53.400;12.486;2023-07-29T09:16:36;11.45;;;9.25;;
13244;SDS011;6689;53.400;12.486;2023-07-29T09:19:04;13.93;;;9.15;;
13244;SDS011;6689;53.400;12.486;2023-07-29T09:21:32;9.75;;;8.68;;
13244;SDS011;6689;53.400;12.486;2023-07-29T09:24:02;11.07;;;8.75;;
13244;SDS011;6689;53.400;12.486;2023-07-29T09:26:32;10.93;;;9.45;;
13244;SDS011;6689;53.400;12.486;2023-07-29T09:29:00;9.82;;;8.77;;
13244;SDS011;6689;53.400;12.486;2023-07-29T09:31:28;9.90;;;9.00;;
13244;SDS011;6689;53.400;12.486;2023-07-29T09:33:56;10.70;;;9.60;;
13244;SDS011;6689;53.400;12.486;2023-07-29T09:36:24;8.63;;;6.63;;
13244;SDS011;6689;53.400;12.486;2023-07-29T09:38:52;5.93;;;5.32;;
13244;SDS011;6689;53.400;12.486;2023-07-29T09:41:21;10.13;;;3.72;;
13244;SDS011;6689;53.400;12.486;2023-07-29T09:43:55;6.38;;;3.72;;
13244;SDS011;6689;53.400;12.486;2023-07-29T09:46:24;4.20;;;3.25;;
13244;SDS011;6689;53.400;12.486;2023-07-29T09:48:58;4.85;;;3.58;;
13244;SDS011;6689;53.400;12.486;2023-07-29T09:51:25;3.90;;;3.03;;
13244;SDS011;6689;53.400;12.486;2023-07-29T09:53:53;4.88;;;2.92;;
13244;SDS011;6689;53.400;12.486;2023-07-29T09:56:23;3.70;;;2.92;;
13244;SDS011;6689;53.400;12.486;2023-07-29T09:58:52;4.65;;;2.97;;
13244;SDS011;6689;53.400;12.486;2023-07-29T10:01:25;5.50;;;3.03;;
13244;SDS011;6689;53.400;12.486;2023-07-29T10:03:52;4.60;;;2.88;;
13244;SDS011;6689;53.400;12.486;2023-07-29T10:06:21;4.35;;;3.33;;
13244;SDS011;6689;53.400;12.486;2023-07-29T10:08:49;5.80;;;3.08;;
13244;SDS011;6689;53.400;12.486;2023-07-29T10:11:21;4.63;;;3.08;;
13244;SDS011;6689;53.400;12.486;2023-07-29T10:13:50;3.92;;;3.40;;
13244;SDS011;6689;53.400;12.486;2023-07-29T10:16:18;6.03;;;3.47;;
13244;SDS011;6689;53.400;12.486;2023-07-29T10:18:47;6.57;;;3.05;;
13244;SDS011;6689;53.400;12.486;2023-07-29T10:21:18;5.75;;;3.00;;
13244;SDS011;6689;53.400;12.486;2023-07-29T10:23:46;5.85;;;3.47;;
13244;SDS011;6689;53.400;12.486;2023-07-29T10:26:16;5.03;;;3.50;;
13244;SDS011;6689;53.400;12.486;2023-07-29T10:28:49;4.13;;;3.35;;
13244;SDS011;6689;53.400;12.486;2023-07-29T10:31:19;5.65;;;3.58;;
13244;SDS011;6689;53.400;12.486;2023-07-29T10:33:50;4.05;;;3.55;;
13244;SDS011;6689;53.400;12.486;2023-07-29T10:36:18;6.57;;;3.83;;
13244;SDS011;6689;53.400;12.486;2023-07-29T10:38:45;4.03;;;3.40;;
13244;SDS011;6689;53.400;12.486;2023-07-29T10:41:13;4.43;;;3.30;;
13244;SDS011;6689;53.400;12.486;2023-07-29T10:43:40;5.05;;;3.65;;
13244;SDS011;6689;53.400;12.486;2023-07-29T10:46:15;5.75;;;3.50;;
13244;SDS011;6689;53.400;12.486;2023-07-29T10:48:44;4.15;;;3.60;;
13244;SDS011;6689;53.400;12.486;2023-07-29T10:51:25;5.30;;;3.92;;
13244;SDS011;6689;53.400;12.486;2023-07-29T10:53:56;3.83;;;3.00;;
13244;SDS011;6689;53.400;12.486;2023-07-29T10:56:25;7.35;;;3.88;;
13244;SDS011;6689;53.400;12.486;2023-07-29T10:58:56;4.45;;;4.05;;
13244;SDS011;6689;53.400;12.486;2023-07-29T11:01:26;5.15;;;3.70;;
13244;SDS011;6689;53.400;12.486;2023-07-29T11:04:03;5.28;;;4.40;;
13244;SDS011;6689;53.400;12.486;2023-07-29T11:07:19;6.10;;;3.95;;
13244;SDS011;6689;53.400;12.486;2023-07-29T11:09:58;5.13;;;4.10;;
13244;SDS011;6689;53.400;12.486;2023-07-29T11:12:36;4.35;;;3.70;;
13244;SDS011;6689;53.400;12.486;2023-07-29T11:15:12;3.50;;;3.13;;
13244;SDS011;6689;53.400;12.486;2023-07-29T11:17:49;5.43;;;3.50;;
13244;SDS011;6689;53.400;12.486;2023-07-29T11:20:19;9.40;;;4.20;;
13244;SDS011;6689;53.400;12.486;2023-07-29T11:22:48;4.72;;;3.90;;
13244;SDS011;6689;53.400;12.486;2023-07-29T11:25:17;4.68;;;3.47;;
13244;SDS011;6689;53.400;12.486;2023-07-29T11:27:45;5.60;;;3.40;;
13244;SDS011;6689;53.400;12.486;2023-07-29T11:30:14;13.38;;;3.88;;
13244;SDS011;6689;53.400;12.486;2023-07-29T11:32:42;4.03;;;3.42;;
13244;SDS011;6689;53.400;12.486;2023-07-29T11:35:11;6.00;;;4.38;;
13244;SDS011;6689;53.400;12.486;2023-07-29T11:37:43;4.25;;;3.83;;
13244;SDS011;6689;53.400;12.486;2023-07-29T11:40:15;7.65;;;3.78;;
13244;SDS011;6689;53.400;12.486;2023-07-29T11:42:44;5.60;;;3.40;;
13244;SDS011;6689;53.400;12.486;2023-07-29T11:45:12;3.13;;;2.83;;
13244;SDS011;6689;53.400;12.486;2023-07-29T11:47:40;3.75;;;2.92;;
13244;SDS011;6689;53.400;12.486;2023-07-29T11:50:08;3.83;;;3.13;;
13244;SDS011;6689;53.400;12.486;2023-07-29T11:52:39;5.18;;;3.15;;
13244;SDS011;6689;53.400;12.486;2023-07-29T11:55:10;5.30;;;3.17;;
13244;SDS011;6689;53.400;12.486;2023-07-29T11:57:44;3.35;;;2.83;;
13244;SDS011;6689;53.400;12.486;2023-07-29T12:00:16;3.15;;;2.75;;
13244;SDS011;6689;53.400;12.486;2023-07-29T12:02:44;3.58;;;2.63;;
13244;SDS011;6689;53.400;12.486;2023-07-29T12:05:13;3.28;;;2.58;;
13244;SDS011;6689;53.400;12.486;2023-07-29T12:07:45;3.70;;;2.85;;
13244;SDS011;6689;53.400;12.486;2023-07-29T12:10:13;3.13;;;2.25;;
13244;SDS011;6689;53.400;12.486;2023-07-29T12:12:44;3.70;;;2.40;;
13244;SDS011;6689;53.400;12.486;2023-07-29T12:15:12;3.30;;;2.80;;
13244;SDS011;6689;53.400;12.486;2023-07-29T12:17:39;3.00;;;2.70;;
13244;SDS011;6689;53.400;12.486;2023-07-29T12:20:08;3.03;;;2.58;;
13244;SDS011;6689;53.400;12.486;2023-07-29T12:22:37;3.45;;;2.53;;
13244;SDS011;6689;53.400;12.486;2023-07-29T12:25:07;2.90;;;2.60;;
13244;SDS011;6689;53.400;12.486;2023-07-29T12:27:35;3.90;;;2.63;;
13244;SDS011;6689;53.400;12.486;2023-07-29T12:30:03;4.45;;;2.95;;
13244;SDS011;6689;53.400;12.486;2023-07-29T12:32:31;3.88;;;2.97;;
13244;SDS011;6689;53.400;12.486;2023-07-29T12:34:58;3.28;;;2.63;;
13244;SDS011;6689;53.400;12.486;2023-07-29T12:37:31;3.67;;;3.17;;
13244;SDS011;6689;53.400;12.486;2023-07-29T12:40:00;4.75;;;2.97;;
13244;SDS011;6689;53.400;12.486;2023-07-29T12:42:30;4.10;;;2.67;;
13244;SDS011;6689;53.400;12.486;2023-07-29T12:44:58;3.65;;;2.58;;
13244;SDS011;6689;53.400;12.486;2023-07-29T12:47:25;4.07;;;3.00;;
13244;SDS011;6689;53.400;12.486;2023-07-29T12:49:52;2.95;;;2.65;;
13244;SDS011;6689;53.400;12.486;2023-07-29T12:52:19;3.45;;;2.58;;
13244;SDS011;6689;53.400;12.486;2023-07-29T12:54:48;3.17;;;2.88;;
13244;SDS011;6689;53.400;12.486;2023-07-29T12:57:16;4.47;;;2.78;;
13244;SDS011;6689;53.400;12.486;2023-07-29T12:59:45;2.92;;;2.60;;
13244;SDS011;6689;53.400;12.486;2023-07-29T13:02:12;3.47;;;2.85;;
13244;SDS011;6689;53.400;12.486;2023-07-29T13:04:51;4.68;;;2.83;;
13244;SDS011;6689;53.400;12.486;2023-07-29T13:07:18;2.97;;;2.67;;
13244;SDS011;6689;53.400;12.486;2023-07-29T13:09:46;7.40;;;3.22;;
13244;SDS011;6689;53.400;12.486;2023-07-29T13:12:18;3.33;;;2.38;;
13244;SDS011;6689;53.400;12.486;2023-07-29T13:14:46;3.35;;;2.17;;
13244;SDS011;6689;53.400;12.486;2023-07-29T13:17:14;3.60;;;2.35;;
13244;SDS011;6689;53.400;12.486;2023-07-29T13:19:41;3.58;;;2.55;;
13244;SDS011;6689;53.400;12.486;2023-07-29T13:22:09;2.83;;;2.53;;
13244;SDS011;6689;53.400;12.486;2023-07-29T13:24:36;3.15;;;2.58;;
13244;SDS011;6689;53.400;12.486;2023-07-29T13:27:07;3.58;;;2.47;;
13244;SDS011;6689;53.400;12.486;2023-07-29T13:29:34;2.80;;;2.40;;
13244;SDS011;6689;53.400;12.486;2023-07-29T13:32:04;2.83;;;2.40;;
13244;SDS011;6689;53.400;12.486;2023-07-29T13:34:32;4.57;;;2.88;;
13244;SDS011;6689;53.400;12.486;2023-07-29T13:36:59;5.50;;;3.58;;
13244;SDS011;6689;53.400;12.486;2023-07-29T13:39:27;3.70;;;3.35;;
13244;SDS011;6689;53.400;12.486;2023-07-29T13:41:54;3.53;;;2.83;;
13244;SDS011;6689;53.400;12.486;2023-07-29T13:44:22;5.70;;;2.97;;
13244;SDS011;6689;53.400;12.486;2023-07-29T13:46:50;4.80;;;3.30;;
13244;SDS011;6689;53.400;12.486;2023-07-29T13:49:19;4.05;;;3.60;;
13244;SDS011;6689;53.400;12.486;2023-07-29T13:51:46;5.30;;;2.97;;
13244;SDS011;6689;53.400;12.486;2023-07-29T13:54:14;4.78;;;3.30;;
13244;SDS011;6689;53.400;12.486;2023-07-29T13:56:41;4.55;;;3.20;;
13244;SDS011;6689;53.400;12.486;2023-07-29T13:59:10;5.35;;;3.33;;
13244;SDS011;6689;53.400;12.486;2023-07-29T14:01:38;4.75;;;4.13;;
13244;SDS011;6689;53.400;12.486;2023-07-29T14:04:05;4.03;;;3.25;;
13244;SDS011;6689;53.400;12.486;2023-07-29T14:06:35;4.97;;;3.55;;
13244;SDS011;6689;53.400;12.486;2023-07-29T14:09:02;4.60;;;3.25;;
13244;SDS011;6689;53.400;12.486;2023-07-29T14:11:29;9.40;;;3.50;;
13244;SDS011;6689;53.400;12.486;2023-07-29T14:13:57;5.40;;;3.42;;
13244;SDS011;6689;53.400;12.486;2023-07-29T14:16:24;5.63;;;3.67;;
13244;SDS011;6689;53.400;12.486;2023-07-29T14:18:51;5.70;;;4.13;;
13244;SDS011;6689;53.400;12.486;2023-07-29T14:21:18;4.10;;;3.50;;
13244;SDS011;6689;53.400;12.486;2023-07-29T14:23:49;4.68;;;3.72;;
13244;SDS011;6689;53.400;12.486;2023-07-29T14:26:17;7.25;;;3.58;;
13244;SDS011;6689;53.400;12.486;2023-07-29T14:28:44;4.53;;;3.60;;
13244;SDS011;6689;53.400;12.486;2023-07-29T14:31:12;4.38;;;3.55;;
13244;SDS011;6689;53.400;12.486;2023-07-29T14:33:42;4.30;;;3.80;;
13244;SDS011;6689;53.400;12.486;2023-07-29T14:36:10;8.18;;;3.28;;
13244;SDS011;6689;53.400;12.486;2023-07-29T14:38:38;4.97;;;3.42;;
13244;SDS011;6689;53.400;12.486;2023-07-29T14:41:07;4.45;;;3.20;;
13244;SDS011;6689;53.400;12.486;2023-07-29T14:43:35;4.32;;;3.40;;
13244;SDS011;6689;53.400;12.486;2023-07-29T14:46:03;4.07;;;3.58;;
13244;SDS011;6689;53.400;12.486;2023-07-29T14:48:31;6.75;;;3.90;;
13244;SDS011;6689;53.400;12.486;2023-07-29T14:50:59;5.50;;;3.92;;
13244;SDS011;6689;53.400;12.486;2023-07-29T14:53:26;5.95;;;3.35;;
13244;SDS011;6689;53.400;12.486;2023-07-29T14:55:54;4.97;;;3.53;;
13244;SDS011;6689;53.400;12.486;2023-07-29T14:58:23;4.28;;;3.88;;